createdAt,value
2023-01-09T00:01:44.447Z,14.02
2023-01-09T00:04:12.832Z,14.35
2023-01-09T00:06:48.030Z,13.98
2023-01-09T00:09:15.003Z,14.93
2023-01-09T00:11:49.091Z,14.32
2023-01-09T00:14:18.160Z,14.15
2023-01-09T00:16:52.616Z,15.80
2023-01-09T00:19:19.473Z,16.83
2023-01-09T00:21:52.766Z,16.25
2023-01-09T00:24:19.644Z,16.52
2023-01-09T00:26:46.561Z,16.48
2023-01-09T00:29:20.618Z,16.67
2023-01-09T00:31:47.543Z,16.95
2023-01-09T00:34:14.982Z,15.88
2023-01-09T00:36:48.615Z,15.05
2023-01-09T00:39:15.885Z,14.48
2023-01-09T00:41:55.050Z,14.43
2023-01-09T00:44:25.880Z,15.70
2023-01-09T00:47:08.125Z,15.68
2023-01-09T00:49:36.820Z,15.30
2023-01-09T00:52:11.704Z,15.38
2023-01-09T00:54:40.704Z,15.05
2023-01-09T00:57:08.370Z,13.98
2023-01-09T00:59:43.515Z,14.23
2023-01-09T01:02:10.740Z,14.20
2023-01-09T01:04:37.816Z,13.38
2023-01-09T01:07:11.877Z,13.40
2023-01-09T01:09:39.827Z,11.52
2023-01-09T01:12:08.009Z,12.43
2023-01-09T01:14:44.640Z,13.18
2023-01-09T01:17:18.678Z,12.07
2023-01-09T01:19:47.290Z,12.45
2023-01-09T01:22:14.445Z,11.95
2023-01-09T01:24:47.648Z,12.63
2023-01-09T01:27:15.953Z,11.88
2023-01-09T01:29:49.687Z,12.30
2023-01-09T01:32:24.926Z,12.65
2023-01-09T01:35:00.470Z,11.95
2023-01-09T01:37:28.359Z,13.18
2023-01-09T01:39:55.472Z,13.50
2023-01-09T01:42:29.684Z,12.48
2023-01-09T01:45:09.365Z,13.65
2023-01-09T01:48:05.942Z,12.15
2023-01-09T01:50:58.379Z,12.57
2023-01-09T01:53:42.261Z,12.32
2023-01-09T01:56:37.252Z,12.32
2023-01-09T01:59:24.544Z,12.13
2023-01-09T02:01:54.769Z,12.23
2023-01-09T02:04:28.661Z,12.70
2023-01-09T02:07:03.697Z,12.02
2023-01-09T02:09:31.589Z,12.48
2023-01-09T02:12:05.752Z,12.15
2023-01-09T02:14:33.971Z,12.68
2023-01-09T02:17:20.253Z,11.93
2023-01-09T02:20:15.934Z,11.02
2023-01-09T02:23:09.664Z,11.77
2023-01-09T02:26:24.174Z,11.52
2023-01-09T02:29:27.562Z,11.05
2023-01-09T02:32:30.153Z,11.48
2023-01-09T02:35:18.745Z,11.90
2023-01-09T02:38:30.707Z,12.50
2023-01-09T02:41:02.233Z,13.82
2023-01-09T02:43:30.566Z,13.70
2023-01-09T02:46:03.824Z,15.00
2023-01-09T02:48:32.652Z,15.15
2023-01-09T02:51:17.895Z,12.52
2023-01-09T02:54:08.688Z,13.70
2023-01-09T02:57:15.263Z,12.00
2023-01-09T02:59:57.000Z,12.38
2023-01-09T03:03:15.749Z,12.30
2023-01-09T03:06:17.687Z,12.38
2023-01-09T03:08:49.412Z,11.77
2023-01-09T03:11:25.678Z,12.43
2023-01-09T03:13:56.858Z,11.88
2023-01-09T03:16:33.816Z,12.68
2023-01-09T03:19:00.983Z,11.65
2023-01-09T03:21:34.852Z,12.20
2023-01-09T03:24:02.368Z,11.15
2023-01-09T03:26:35.794Z,11.60
2023-01-09T03:29:09.815Z,10.52
2023-01-09T03:31:39.383Z,10.40
2023-01-09T03:34:13.756Z,11.30
2023-01-09T03:36:48.862Z,11.23
2023-01-09T03:39:22.742Z,11.18
2023-01-09T03:41:55.719Z,11.55
2023-01-09T03:44:29.769Z,11.30
2023-01-09T03:46:57.031Z,10.40
2023-01-09T03:49:32.800Z,10.73
2023-01-09T03:52:02.461Z,11.77
2023-01-09T03:54:35.801Z,10.48
2023-01-09T03:57:03.098Z,11.38
2023-01-09T03:59:36.892Z,10.57
2023-01-09T04:02:04.289Z,9.45
2023-01-09T04:04:37.810Z,10.65
2023-01-09T04:07:06.281Z,10.60
2023-01-09T04:09:39.751Z,10.02
2023-01-09T04:12:13.801Z,10.48
2023-01-09T04:14:40.724Z,11.40
2023-01-09T04:17:13.834Z,9.52
2023-01-09T04:19:41.075Z,8.50
2023-01-09T04:22:08.336Z,10.38
2023-01-09T04:24:41.782Z,9.00
2023-01-09T04:27:09.026Z,9.52
2023-01-09T04:29:42.785Z,9.50
2023-01-09T04:32:10.166Z,9.73
2023-01-09T04:34:47.751Z,10.25
2023-01-09T04:37:17.350Z,9.75
2023-01-09T04:39:53.080Z,9.25
2023-01-09T04:42:21.578Z,9.10
2023-01-09T04:44:54.836Z,9.13
2023-01-09T04:47:30.768Z,10.95
2023-01-09T04:50:07.138Z,9.73
2023-01-09T04:52:40.848Z,7.28
2023-01-09T04:55:08.645Z,7.07
2023-01-09T04:57:44.171Z,7.18
2023-01-09T05:00:13.034Z,6.82
2023-01-09T05:02:46.785Z,6.70
2023-01-09T05:05:13.786Z,6.20
2023-01-09T05:07:47.778Z,6.35
2023-01-09T05:10:15.011Z,7.03
2023-01-09T05:12:48.818Z,6.82
2023-01-09T05:15:19.088Z,6.95
2023-01-09T05:17:48.260Z,6.80
2023-01-09T05:20:21.770Z,7.43
2023-01-09T05:22:48.913Z,6.75
2023-01-09T05:25:22.773Z,6.38
2023-01-09T05:27:52.217Z,5.70
2023-01-09T05:30:26.864Z,5.50
2023-01-09T05:32:54.077Z,5.13
2023-01-09T05:35:28.848Z,5.18
2023-01-09T05:37:56.162Z,5.50
2023-01-09T05:40:28.896Z,5.28
2023-01-09T05:43:05.819Z,5.70
2023-01-09T05:45:32.930Z,4.93
2023-01-09T05:48:06.877Z,5.53
2023-01-09T05:50:33.943Z,5.30
2023-01-09T05:53:07.840Z,5.95
2023-01-09T05:55:35.006Z,5.57
2023-01-09T05:58:14.347Z,5.53
2023-01-09T06:00:41.568Z,5.43
2023-01-09T06:03:08.739Z,5.90
2023-01-09T06:05:44.883Z,5.25
2023-01-09T06:08:12.079Z,5.97
2023-01-09T06:10:39.380Z,5.93
2023-01-09T06:13:12.863Z,6.20
2023-01-09T06:15:40.072Z,5.50
2023-01-09T06:18:13.831Z,6.03
2023-01-09T06:20:40.811Z,5.00
2023-01-09T06:23:14.022Z,5.18
2023-01-09T06:25:41.352Z,5.20
2023-01-09T06:28:08.287Z,5.22
2023-01-09T06:30:41.792Z,4.88
2023-01-09T06:33:08.738Z,5.10
2023-01-09T06:35:41.809Z,4.43
2023-01-09T06:38:08.904Z,4.18
2023-01-09T06:40:42.994Z,4.45
2023-01-09T06:43:16.863Z,4.20
2023-01-09T06:45:50.983Z,4.30
2023-01-09T06:48:24.876Z,5.45
2023-01-09T06:51:01.865Z,5.38
2023-01-09T06:53:29.108Z,5.60
2023-01-09T06:55:56.268Z,6.80
2023-01-09T06:58:34.911Z,6.90
2023-01-09T07:01:02.336Z,7.72
2023-01-09T07:03:29.604Z,7.85
2023-01-09T07:06:02.885Z,6.38
2023-01-09T07:08:29.879Z,5.88
2023-01-09T07:11:03.818Z,7.07
2023-01-09T07:13:30.823Z,6.60
2023-01-09T07:16:03.869Z,6.38
2023-01-09T07:18:30.929Z,6.20
2023-01-09T07:21:04.830Z,6.45
2023-01-09T07:23:31.981Z,6.90
2023-01-09T07:26:00.087Z,7.47
2023-01-09T07:28:33.821Z,7.65
2023-01-09T07:31:00.841Z,7.25
2023-01-09T07:33:34.994Z,7.28
2023-01-09T07:36:01.925Z,8.18
2023-01-09T07:38:28.850Z,7.13
2023-01-09T07:41:01.810Z,8.13
2023-01-09T07:43:28.745Z,16.08
2023-01-09T07:45:55.699Z,27.27
2023-01-09T07:48:31.956Z,13.70
2023-01-09T07:50:59.263Z,8.55
2023-01-09T07:53:32.868Z,7.38
2023-01-09T07:55:59.789Z,11.77
2023-01-09T07:58:32.933Z,10.32
2023-01-09T08:01:06.737Z,10.18
2023-01-09T08:03:39.807Z,10.82
2023-01-09T08:06:13.926Z,10.55
2023-01-09T08:08:40.858Z,10.00
2023-01-09T08:11:13.841Z,11.02
2023-01-09T08:13:40.815Z,11.00
2023-01-09T08:16:14.872Z,10.30
2023-01-09T08:18:41.822Z,12.40
2023-01-09T08:21:14.801Z,12.30
2023-01-09T08:23:47.917Z,10.88
2023-01-09T08:26:14.859Z,13.82
2023-01-09T08:28:48.025Z,13.20
2023-01-09T08:31:15.528Z,12.35
2023-01-09T08:33:48.833Z,11.93
2023-01-09T08:36:15.754Z,11.68
2023-01-09T08:38:48.891Z,11.65
2023-01-09T08:41:16.000Z,12.48
2023-01-09T08:43:50.139Z,11.20
2023-01-09T08:46:20.474Z,12.27
2023-01-09T08:48:53.876Z,11.18
2023-01-09T08:51:20.812Z,12.80
2023-01-09T08:53:53.834Z,12.25
2023-01-09T08:56:26.903Z,12.57
2023-01-09T08:58:53.819Z,11.85
2023-01-09T09:01:26.897Z,10.27
2023-01-09T09:04:00.829Z,11.93
2023-01-09T09:06:33.891Z,12.82
2023-01-09T09:09:01.115Z,11.30
2023-01-09T09:11:34.941Z,12.18
2023-01-09T09:14:08.885Z,11.98
2023-01-09T09:16:35.824Z,11.70
2023-01-09T09:19:09.003Z,12.05
2023-01-09T09:21:35.979Z,12.20
2023-01-09T09:24:08.904Z,12.27
2023-01-09T09:26:44.571Z,12.20
2023-01-09T09:29:18.875Z,13.27
2023-01-09T09:31:45.727Z,12.73
2023-01-09T09:34:19.083Z,17.45
2023-01-09T09:36:46.559Z,15.40
2023-01-09T09:39:13.514Z,15.02
2023-01-09T09:42:19.952Z,12.30
2023-01-09T09:44:56.051Z,12.70
2023-01-09T09:47:38.889Z,14.13
2023-01-09T09:50:24.774Z,13.93
2023-01-09T09:53:34.020Z,13.68
2023-01-09T09:56:01.013Z,12.45
2023-01-09T09:58:53.070Z,14.82
2023-01-09T10:01:27.337Z,13.52
2023-01-09T10:04:03.881Z,13.40
2023-01-09T10:07:05.912Z,12.82
2023-01-09T10:09:47.766Z,13.15
2023-01-09T10:12:36.939Z,13.57
2023-01-09T10:15:29.684Z,13.30
2023-01-09T10:18:41.079Z,13.88
2023-01-09T10:21:23.112Z,13.70
2023-01-09T10:24:20.982Z,13.43
2023-01-09T10:26:52.372Z,13.75
2023-01-09T10:29:40.158Z,13.60
2023-01-09T10:32:36.595Z,11.55
2023-01-09T10:35:57.984Z,12.43
2023-01-09T10:38:32.902Z,13.07
2023-01-09T10:41:08.977Z,12.98
2023-01-09T10:44:08.909Z,12.75
2023-01-09T10:46:52.873Z,12.80
2023-01-09T10:49:25.905Z,12.32
2023-01-09T10:52:20.565Z,12.38
2023-01-09T10:55:08.009Z,12.45
2023-01-09T10:57:46.385Z,13.05
2023-01-09T11:00:28.931Z,13.32
2023-01-09T11:03:01.984Z,14.10
2023-01-09T11:05:32.472Z,13.52
2023-01-09T11:08:31.980Z,13.07
2023-01-09T11:11:07.918Z,13.98
2023-01-09T11:13:36.666Z,13.80
2023-01-09T11:16:27.903Z,14.45
2023-01-09T11:18:56.631Z,14.25
2023-01-09T11:21:44.954Z,13.05
2023-01-09T11:24:21.047Z,12.45
2023-01-09T11:26:56.946Z,12.90
2023-01-09T11:29:30.966Z,12.68
2023-01-09T11:31:59.039Z,14.35
2023-01-09T11:34:37.905Z,15.65
2023-01-09T11:37:19.929Z,13.73
2023-01-09T11:39:52.919Z,14.07
2023-01-09T11:42:32.929Z,14.73
2023-01-09T11:45:05.950Z,14.68
2023-01-09T11:47:40.002Z,13.27
2023-01-09T11:50:28.077Z,12.35
2023-01-09T11:53:18.123Z,13.18
2023-01-09T11:55:52.902Z,12.23
2023-01-09T11:58:21.616Z,11.98
2023-01-09T12:01:42.991Z,11.80
2023-01-09T12:04:49.729Z,11.55
2023-01-09T12:08:04.971Z,10.48
2023-01-09T12:10:49.956Z,10.85
2023-01-09T12:13:39.032Z,12.13
2023-01-09T12:17:00.022Z,11.27
2023-01-09T12:20:06.979Z,11.27
2023-01-09T12:22:55.320Z,11.50
2023-01-09T12:26:07.017Z,11.32
2023-01-09T12:28:47.277Z,10.93
2023-01-09T12:31:46.071Z,11.80
2023-01-09T12:34:32.349Z,11.65
2023-01-09T12:37:38.925Z,12.32
2023-01-09T12:40:23.003Z,12.18
2023-01-09T12:43:42.962Z,13.40
2023-01-09T12:46:23.062Z,12.65
2023-01-09T12:49:26.977Z,13.13
2023-01-09T12:52:12.429Z,14.65
2023-01-09T12:55:04.945Z,14.15
2023-01-09T12:57:42.093Z,12.13
2023-01-09T13:00:28.986Z,11.95
2023-01-09T13:03:37.532Z,12.80
2023-01-09T13:06:13.152Z,11.95
2023-01-09T13:08:42.619Z,11.98
2023-01-09T13:11:23.100Z,12.25
2023-01-09T13:14:00.881Z,13.18
2023-01-09T13:16:50.032Z,12.13
2023-01-09T13:19:37.954Z,11.90
2023-01-09T13:22:18.995Z,11.90
2023-01-09T13:25:28.057Z,12.05
2023-01-09T13:28:07.111Z,12.00
2023-01-09T13:30:58.539Z,11.98
2023-01-09T13:33:44.075Z,12.63
2023-01-09T13:36:29.750Z,13.35
2023-01-09T13:39:04.005Z,13.27
2023-01-09T13:41:32.507Z,12.52
2023-01-09T13:44:11.015Z,13.25
2023-01-09T13:46:44.492Z,15.82
2023-01-09T13:49:49.038Z,14.25
2023-01-09T13:52:30.624Z,15.27
2023-01-09T13:55:04.045Z,15.30
2023-01-09T13:57:35.488Z,13.75
2023-01-09T14:00:32.013Z,14.70
2023-01-09T14:03:22.042Z,13.48
2023-01-09T14:05:48.848Z,13.80
2023-01-09T14:08:26.125Z,13.57
2023-01-09T14:10:57.528Z,13.02
2023-01-09T14:13:44.048Z,12.48
2023-01-09T14:16:23.890Z,13.65
2023-01-09T14:19:31.086Z,14.18
2023-01-09T14:21:58.109Z,13.02
2023-01-09T14:24:49.125Z,15.05
2023-01-09T14:27:54.146Z,14.55
2023-01-09T14:30:33.144Z,13.80
2023-01-09T14:33:25.013Z,13.68
2023-01-09T14:36:25.072Z,12.55
2023-01-09T14:39:06.061Z,14.88
2023-01-09T14:41:53.588Z,15.20
2023-01-09T14:44:57.087Z,13.77
2023-01-09T14:47:57.028Z,16.25
2023-01-09T14:50:59.806Z,14.85
2023-01-09T14:53:40.016Z,13.55
2023-01-09T14:56:30.132Z,13.60
2023-01-09T14:59:18.069Z,13.82
2023-01-09T15:01:47.543Z,14.25
2023-01-09T15:04:40.168Z,12.60
2023-01-09T15:07:07.139Z,13.40
2023-01-09T15:09:52.048Z,11.70
2023-01-09T15:12:29.143Z,11.85
2023-01-09T15:14:58.371Z,12.48
2023-01-09T15:17:29.031Z,13.68
2023-01-09T15:20:03.143Z,18.00
2023-01-09T15:22:31.599Z,18.00
2023-01-09T15:25:05.145Z,22.98
2023-01-09T15:27:39.183Z,21.65
2023-01-09T15:30:24.125Z,17.27
2023-01-09T15:32:51.540Z,27.70
2023-01-09T15:35:25.268Z,22.52
2023-01-09T15:37:54.901Z,16.92
2023-01-09T15:40:34.186Z,14.95
2023-01-09T15:43:01.185Z,12.60
2023-01-09T15:45:47.073Z,12.98
2023-01-09T15:48:31.877Z,13.20
2023-01-09T15:51:17.130Z,15.18
2023-01-09T15:53:46.482Z,16.52
2023-01-09T15:56:34.123Z,15.30
2023-01-09T15:59:08.208Z,17.60
2023-01-09T16:01:39.015Z,14.63
2023-01-09T16:04:20.089Z,14.10
2023-01-09T16:06:50.227Z,15.40
2023-01-09T16:09:37.116Z,25.42
2023-01-09T16:12:11.120Z,30.33
2023-01-09T16:14:40.204Z,27.02
2023-01-09T16:17:32.151Z,16.52
2023-01-09T16:20:12.547Z,20.55
2023-01-09T16:23:01.366Z,15.55
2023-01-09T16:25:28.850Z,18.15
2023-01-09T16:28:22.149Z,17.52
2023-01-09T16:31:15.726Z,16.58
2023-01-09T16:33:56.145Z,19.30
2023-01-09T16:36:30.168Z,20.40
2023-01-09T16:39:04.204Z,24.77
2023-01-09T16:41:31.337Z,21.55
2023-01-09T16:44:06.761Z,20.38
2023-01-09T16:46:33.956Z,19.63
2023-01-09T16:49:08.146Z,22.42
2023-01-09T16:51:35.128Z,22.60
2023-01-09T16:54:08.108Z,17.38
2023-01-09T16:56:41.118Z,15.98
2023-01-09T16:59:22.235Z,14.45
2023-01-09T17:01:49.494Z,13.88
2023-01-09T17:04:23.191Z,10.85
2023-01-09T17:06:57.207Z,4.47
2023-01-09T17:09:26.559Z,2.10
2023-01-09T17:12:01.197Z,1.98
2023-01-09T17:14:28.689Z,1.75
2023-01-09T17:17:05.435Z,3.70
2023-01-09T17:19:32.838Z,4.20
2023-01-09T17:22:06.254Z,2.50
2023-01-09T17:24:34.078Z,2.10
2023-01-09T17:27:10.295Z,1.50
2023-01-09T17:29:42.144Z,2.40
2023-01-09T17:32:20.301Z,4.38
2023-01-09T17:34:48.182Z,6.05
2023-01-09T17:37:20.411Z,6.13
2023-01-09T17:39:57.171Z,8.23
2023-01-09T17:42:31.150Z,10.80
2023-01-09T17:44:58.490Z,14.55
2023-01-09T17:47:32.335Z,13.90
2023-01-09T17:50:04.089Z,11.43
2023-01-09T17:52:38.283Z,8.40
2023-01-09T17:55:12.317Z,7.00
2023-01-09T17:57:49.173Z,8.25
2023-01-09T18:00:34.491Z,7.38
2023-01-09T18:03:08.255Z,5.97
2023-01-09T18:05:35.384Z,4.30
2023-01-09T18:08:05.190Z,3.50
2023-01-09T18:10:44.048Z,3.40
2023-01-09T18:13:12.340Z,2.75
2023-01-09T18:15:50.648Z,2.22
2023-01-09T18:18:25.343Z,2.33
2023-01-09T18:21:02.850Z,2.63
2023-01-09T18:23:36.262Z,3.03
2023-01-09T18:26:10.099Z,3.88
2023-01-09T18:28:45.315Z,5.20
2023-01-09T18:31:12.397Z,6.30
2023-01-09T18:33:46.156Z,12.93
2023-01-09T18:36:13.288Z,14.25
2023-01-09T18:38:40.300Z,5.07
2023-01-09T18:41:14.767Z,3.70
2023-01-09T18:43:43.384Z,3.58
2023-01-09T18:46:17.252Z,3.78
2023-01-09T18:48:44.348Z,8.07
2023-01-09T18:51:18.190Z,9.48
2023-01-09T18:53:45.582Z,8.95
2023-01-09T18:56:19.257Z,11.38
2023-01-09T18:58:47.381Z,4.93
2023-01-09T19:01:21.371Z,9.85
2023-01-09T19:03:48.673Z,4.82
2023-01-09T19:06:28.260Z,9.88
2023-01-09T19:09:02.198Z,6.22
2023-01-09T19:11:29.222Z,13.75
2023-01-09T19:14:03.143Z,10.40
2023-01-09T19:16:30.139Z,6.55
2023-01-09T19:19:03.164Z,3.50
2023-01-09T19:21:30.111Z,2.38
2023-01-09T19:23:57.128Z,4.80
2023-01-09T19:26:33.198Z,20.33
2023-01-09T19:29:00.691Z,25.40
2023-01-09T19:31:34.383Z,20.00
2023-01-09T19:34:01.421Z,14.43
2023-01-09T19:36:35.435Z,10.38
2023-01-09T19:39:03.301Z,8.18
2023-01-09T19:41:30.373Z,11.02
2023-01-09T19:44:05.188Z,15.88
2023-01-09T19:46:32.458Z,19.35
2023-01-09T19:48:59.626Z,17.55
2023-01-09T19:51:33.306Z,10.45
2023-01-09T19:54:03.202Z,9.18
2023-01-09T19:56:38.279Z,10.77
2023-01-09T19:59:05.629Z,8.95
2023-01-09T20:01:37.643Z,9.77
2023-01-09T20:04:13.250Z,9.15
2023-01-09T20:06:42.255Z,5.22
2023-01-09T20:09:16.344Z,6.03
2023-01-09T20:11:43.405Z,3.65
2023-01-09T20:14:26.284Z,2.08
2023-01-09T20:16:53.576Z,2.30
2023-01-09T20:19:27.304Z,2.10
2023-01-09T20:21:54.390Z,2.67
2023-01-09T20:24:28.222Z,2.92
2023-01-09T20:26:55.286Z,2.03
2023-01-09T20:29:29.270Z,2.95
2023-01-09T20:32:03.382Z,3.08
2023-01-09T20:34:37.394Z,3.20
2023-01-09T20:37:04.531Z,11.57
2023-01-09T20:39:38.379Z,16.35
2023-01-09T20:42:05.486Z,16.33
2023-01-09T20:44:32.588Z,12.95
2023-01-09T20:47:06.300Z,7.95
2023-01-09T20:49:40.239Z,5.15
2023-01-09T20:52:14.349Z,4.45
2023-01-09T20:54:41.518Z,3.35
2023-01-09T20:57:08.763Z,3.00
2023-01-09T20:59:42.295Z,3.65
2023-01-09T21:02:21.283Z,8.63
2023-01-09T21:04:49.388Z,8.23
2023-01-09T21:07:16.507Z,17.13
2023-01-09T21:09:50.893Z,11.52
2023-01-09T21:12:25.254Z,10.00
2023-01-09T21:14:56.549Z,11.75
2023-01-09T21:17:30.334Z,15.30
2023-01-09T21:19:57.553Z,17.45
2023-01-09T21:22:40.331Z,23.02
2023-01-09T21:25:08.130Z,16.48
2023-01-09T21:27:48.433Z,24.55
2023-01-09T21:30:15.775Z,19.58
2023-01-09T21:32:42.925Z,9.88
2023-01-09T21:35:16.284Z,6.53
2023-01-09T21:37:43.391Z,5.30
2023-01-09T21:40:18.387Z,5.32
2023-01-09T21:42:45.668Z,4.63
2023-01-09T21:45:23.308Z,6.88
2023-01-09T21:47:56.413Z,11.05
2023-01-09T21:50:23.524Z,7.65
2023-01-09T21:52:50.589Z,7.05
2023-01-09T21:55:24.330Z,19.60
2023-01-09T21:58:03.409Z,28.85
2023-01-09T22:00:30.483Z,21.77
2023-01-09T22:02:57.546Z,16.60
2023-01-09T22:05:33.844Z,16.25
2023-01-09T22:08:00.990Z,10.23
2023-01-09T22:10:34.488Z,6.20
2023-01-09T22:13:09.381Z,5.43
2023-01-09T22:15:45.397Z,7.75
2023-01-09T22:18:12.935Z,11.32
2023-01-09T22:20:48.331Z,9.32
2023-01-09T22:23:17.010Z,9.38
2023-01-09T22:25:51.371Z,16.80
2023-01-09T22:28:18.604Z,12.85
2023-01-09T22:30:47.791Z,17.77
2023-01-09T22:33:23.140Z,15.23
2023-01-09T22:35:51.477Z,5.07
2023-01-09T22:38:25.783Z,3.15
2023-01-09T22:40:59.376Z,2.67
2023-01-09T22:43:29.267Z,2.75
2023-01-09T22:46:11.781Z,2.30
2023-01-09T22:48:39.759Z,4.25
2023-01-09T22:51:22.542Z,4.65
2023-01-09T22:53:50.351Z,4.35
2023-01-09T22:56:22.795Z,6.05
2023-01-09T22:58:58.668Z,10.38
2023-01-09T23:01:32.322Z,9.13
2023-01-09T23:04:06.609Z,9.32
2023-01-09T23:06:44.797Z,9.43
2023-01-09T23:09:15.237Z,6.75
2023-01-09T23:11:55.472Z,4.63
2023-01-09T23:14:29.805Z,3.67
2023-01-09T23:16:57.564Z,3.58
2023-01-09T23:19:31.389Z,4.18
2023-01-09T23:22:00.602Z,5.00
2023-01-09T23:24:34.387Z,3.75
2023-01-09T23:27:02.814Z,2.95
2023-01-09T23:29:38.782Z,3.30
2023-01-09T23:32:13.395Z,3.33
2023-01-09T23:34:40.471Z,4.25
2023-01-09T23:37:14.415Z,4.90
2023-01-09T23:39:41.521Z,4.50
2023-01-09T23:42:17.397Z,4.53
2023-01-09T23:44:44.320Z,4.60
2023-01-09T23:47:12.524Z,6.95
2023-01-09T23:49:47.299Z,7.85
2023-01-09T23:52:14.927Z,9.77
2023-01-09T23:54:48.658Z,7.45
2023-01-09T23:57:22.364Z,15.48
2023-01-09T23:59:56.343Z,13.65
